Time;durP1;ratioP1;P1;durP2;ratioP2;P2;SDS_P1;SDS_P2;PMS_P1;PMS_P2;Temp;Humidity;BMP_temperature;BMP_pressure;BME280_temperature;BME280_humidity;BME280_pressure;Samples;Min_cycle;Max_cycle;Signal;HPM_P1;HPM_P2
2023/07/24 00:00:25;;;;;;;3.10;2.80;;;20.60;99.90;;;;;;5034110;28;20211;-77
2023/07/24 00:02:51;;;;;;;3.27;3.00;;;20.60;99.90;;;;;;5027920;28;20197;-78
2023/07/24 00:05:16;;;;;;;5.33;3.33;;;20.50;99.90;;;;;;5028221;28;20287;-76
2023/07/24 00:07:42;;;;;;;3.00;2.70;;;20.60;99.90;;;;;;5037905;28;20217;-75
2023/07/24 00:10:07;;;;;;;3.50;2.73;;;20.50;99.90;;;;;;5037945;28;20207;-75
2023/07/24 00:12:33;;;;;;;4.43;3.43;;;20.50;99.90;;;;;;5035504;28;20206;-76
2023/07/24 00:14:58;;;;;;;4.30;2.90;;;20.50;99.90;;;;;;5035834;28;20218;-76
2023/07/24 00:17:24;;;;;;;3.37;2.90;;;20.40;99.90;;;;;;5032248;28;20206;-75
2023/07/24 00:19:49;;;;;;;5.17;2.90;;;20.40;99.90;;;;;;5036440;28;20202;-74
2023/07/24 00:22:15;;;;;;;4.93;3.20;;;20.40;99.90;;;;;;4990891;28;20557;-73
2023/07/24 00:24:40;;;;;;;3.43;2.67;;;20.40;99.90;;;;;;5038181;28;20208;-73
2023/07/24 00:27:06;;;;;;;6.90;3.40;;;20.40;99.90;;;;;;5037303;28;20195;-74
2023/07/24 00:29:31;;;;;;;3.93;3.30;;;20.40;99.90;;;;;;5037070;28;20201;-72
2023/07/24 00:31:57;;;;;;;5.70;3.57;;;20.40;99.90;;;;;;5037881;28;20759;-73
2023/07/24 00:34:22;;;;;;;4.37;3.30;;;20.40;99.90;;;;;;5037030;28;20218;-73
2023/07/24 00:36:48;;;;;;;4.03;3.13;;;20.30;99.90;;;;;;5032652;28;20218;-73
2023/07/24 00:39:16;;;;;;;3.33;3.00;;;20.30;99.90;;;;;;5037340;28;20217;-72
2023/07/24 00:41:42;;;;;;;3.00;2.70;;;20.30;99.90;;;;;;5030635;28;20281;-72
2023/07/24 00:44:08;;;;;;;3.13;2.80;;;20.30;99.90;;;;;;5036559;28;20291;-74
2023/07/24 00:46:35;;;;;;;4.73;3.27;;;20.30;99.90;;;;;;5034783;28;20312;-74
2023/07/24 00:49:03;;;;;;;4.57;3.33;;;20.20;99.90;;;;;;5031519;28;20231;-72
2023/07/24 00:51:28;;;;;;;3.63;3.33;;;20.20;99.90;;;;;;5036966;28;20694;-72
2023/07/24 00:54:01;;;;;;;7.97;3.27;;;20.30;99.90;;;;;;5026739;28;20224;-74
2023/07/24 00:56:27;;;;;;;3.03;2.80;;;20.30;99.90;;;;;;5035664;28;20208;-73
2023/07/24 00:58:55;;;;;;;7.80;3.53;;;20.30;99.90;;;;;;5037137;28;20763;-72
2023/07/24 01:01:22;;;;;;;7.60;4.13;;;20.30;99.90;;;;;;5036972;28;20211;-72
2023/07/24 01:03:48;;;;;;;3.57;2.93;;;20.30;99.90;;;;;;5030269;28;20206;-73
2023/07/24 01:06:13;;;;;;;3.37;2.97;;;20.30;99.90;;;;;;5032338;28;20195;-72
2023/07/24 01:08:39;;;;;;;4.00;2.80;;;20.30;99.90;;;;;;5037173;28;20905;-73
2023/07/24 01:11:15;;;;;;;4.10;2.93;;;20.30;99.90;;;;;;5036857;28;20233;-73
2023/07/24 01:13:48;;;;;;;4.90;3.10;;;20.20;99.90;;;;;;5028540;28;20203;-73
2023/07/24 01:16:18;;;;;;;3.60;3.30;;;20.10;99.90;;;;;;5033538;28;20667;-73
2023/07/24 01:18:45;;;;;;;3.87;2.70;;;20.20;99.90;;;;;;5037088;28;20212;-77
2023/07/24 01:21:12;;;;;;;4.30;3.07;;;20.20;99.90;;;;;;5031408;28;20649;-77
2023/07/24 01:23:52;;;;;;;3.93;3.27;;;20.20;99.90;;;;;;4984941;28;20207;-78
2023/07/24 01:26:18;;;;;;;3.20;2.87;;;20.20;99.90;;;;;;5038605;28;20770;-77
2023/07/24 01:28:44;;;;;;;3.17;2.87;;;20.20;99.90;;;;;;5036615;28;20251;-79
2023/07/24 01:31:10;;;;;;;4.40;3.13;;;20.10;99.90;;;;;;5034999;28;20200;-76
2023/07/24 01:33:36;;;;;;;3.10;2.87;;;20.10;99.90;;;;;;5036953;28;20215;-76
2023/07/24 01:36:04;;;;;;;4.77;2.80;;;20.20;99.90;;;;;;5027739;28;21022;-74
2023/07/24 01:38:34;;;;;;;4.10;2.97;;;20.20;99.90;;;;;;5036746;28;20217;-73
2023/07/24 01:41:00;;;;;;;3.67;3.33;;;20.20;99.90;;;;;;5030490;28;20256;-73
2023/07/24 01:43:27;;;;;;;2.70;2.50;;;20.20;99.90;;;;;;5014627;28;20626;-73
2023/07/24 01:45:52;;;;;;;4.20;3.30;;;20.20;99.90;;;;;;5036762;28;20280;-73
2023/07/24 01:48:18;;;;;;;5.47;3.07;;;20.20;99.90;;;;;;5033094;28;20293;-72
2023/07/24 01:50:43;;;;;;;3.87;2.83;;;20.10;99.90;;;;;;5031271;28;20233;-73
2023/07/24 01:53:09;;;;;;;2.97;2.77;;;20.10;99.90;;;;;;5034541;28;20209;-72
2023/07/24 01:55:35;;;;;;;3.27;2.97;;;20.10;99.90;;;;;;5039445;28;20220;-72
2023/07/24 01:58:00;;;;;;;4.67;2.80;;;20.10;99.90;;;;;;5040400;28;20196;-72
2023/07/24 02:00:26;;;;;;;3.67;3.30;;;20.10;99.90;;;;;;5040356;28;20252;-72
2023/07/24 02:02:51;;;;;;;3.43;2.77;;;20.10;99.90;;;;;;5031009;28;20216;-72
2023/07/24 02:05:17;;;;;;;4.03;3.57;;;20.10;99.90;;;;;;5037875;28;20660;-72
2023/07/24 02:07:42;;;;;;;4.20;2.73;;;20.10;99.90;;;;;;5039837;28;20565;-72
2023/07/24 02:10:08;;;;;;;3.50;2.60;;;20.10;99.90;;;;;;5040571;28;20570;-72
2023/07/24 02:12:34;;;;;;;5.40;2.80;;;20.10;99.90;;;;;;5030413;28;20681;-72
2023/07/24 02:14:59;;;;;;;3.17;2.87;;;20.10;99.90;;;;;;5040082;28;20217;-72
2023/07/24 02:17:25;;;;;;;4.00;2.90;;;20.00;99.90;;;;;;5040351;28;20725;-72
2023/07/24 02:19:50;;;;;;;3.03;2.73;;;20.10;99.90;;;;;;5037594;28;20731;-68
2023/07/24 02:22:16;;;;;;;3.57;3.03;;;20.00;99.90;;;;;;4980472;28;20575;-66
2023/07/24 02:24:42;;;;;;;3.73;2.63;;;20.00;99.90;;;;;;5036585;28;20210;-78
2023/07/24 02:27:07;;;;;;;2.63;2.30;;;20.00;99.90;;;;;;5039571;28;20212;-75
2023/07/24 02:29:33;;;;;;;3.80;2.87;;;20.00;99.90;;;;;;5030571;28;20227;-70
2023/07/24 02:32:00;;;;;;;3.07;2.70;;;20.00;99.90;;;;;;5035490;28;20213;-72
2023/07/24 02:34:28;;;;;;;3.00;2.70;;;20.00;99.90;;;;;;5035111;28;20233;-72
2023/07/24 02:36:53;;;;;;;3.73;2.83;;;20.00;99.90;;;;;;5040448;28;20204;-72
2023/07/24 02:39:19;;;;;;;3.60;3.03;;;20.00;99.90;;;;;;5039010;28;20205;-73
2023/07/24 02:41:45;;;;;;;4.07;2.70;;;20.00;99.90;;;;;;5037660;28;20213;-73
2023/07/24 02:44:11;;;;;;;4.10;3.30;;;20.00;99.90;;;;;;5039457;28;20203;-72
2023/07/24 02:46:36;;;;;;;3.40;3.10;;;20.00;99.90;;;;;;5039364;28;20285;-73
2023/07/24 02:49:02;;;;;;;4.47;2.77;;;20.00;99.90;;;;;;5033152;28;20571;-71
2023/07/24 02:51:27;;;;;;;4.27;3.43;;;20.00;99.90;;;;;;5038603;28;20270;-76
2023/07/24 02:53:55;;;;;;;4.23;2.73;;;20.00;99.90;;;;;;5039684;28;20280;-76
2023/07/24 02:56:20;;;;;;;4.47;2.53;;;20.00;99.90;;;;;;5039030;28;20703;-77
2023/07/24 02:58:46;;;;;;;3.13;2.83;;;20.00;99.90;;;;;;5039196;28;20202;-77
2023/07/24 03:01:13;;;;;;;4.57;2.93;;;20.00;99.90;;;;;;5029773;28;20238;-78
2023/07/24 03:03:39;;;;;;;3.07;2.57;;;19.90;99.90;;;;;;5027484;28;20249;-76
2023/07/24 03:06:05;;;;;;;2.83;2.33;;;19.90;99.90;;;;;;5038251;28;20683;-77
2023/07/24 03:08:30;;;;;;;2.87;2.67;;;19.90;99.90;;;;;;5039115;28;20378;-75
2023/07/24 03:10:56;;;;;;;2.50;2.30;;;19.90;99.90;;;;;;5034665;28;20248;-70
2023/07/24 03:13:21;;;;;;;3.50;3.20;;;19.90;99.90;;;;;;5029308;28;20228;-78
2023/07/24 03:15:57;;;;;;;3.00;2.70;;;19.90;99.90;;;;;;5035673;28;20315;-79
2023/07/24 03:18:24;;;;;;;2.83;2.63;;;19.90;99.90;;;;;;5036273;28;20204;-79
2023/07/24 03:20:49;;;;;;;3.53;2.57;;;19.90;99.90;;;;;;5028461;28;20199;-79
2023/07/24 03:23:15;;;;;;;4.10;3.07;;;20.00;99.90;;;;;;4977258;28;20204;-75
2023/07/24 03:25:41;;;;;;;3.20;2.60;;;20.00;99.90;;;;;;5038120;28;20627;-74
2023/07/24 03:28:06;;;;;;;2.40;2.20;;;20.00;99.90;;;;;;5029659;28;20213;-70
2023/07/24 03:30:32;;;;;;;2.70;2.20;;;20.00;99.90;;;;;;5009982;28;20702;-73
2023/07/24 03:32:57;;;;;;;2.73;2.50;;;20.10;99.90;;;;;;5031840;28;20204;-69
2023/07/24 03:35:23;;;;;;;2.57;2.37;;;20.10;99.90;;;;;;5032365;28;20241;-69
2023/07/24 03:37:49;;;;;;;2.87;2.67;;;20.10;99.90;;;;;;5034137;28;20554;-69
2023/07/24 03:40:15;;;;;;;2.43;2.10;;;20.10;99.90;;;;;;5038677;28;20301;-70
2023/07/24 03:42:41;;;;;;;2.50;2.30;;;20.00;99.90;;;;;;5039411;28;20652;-73
2023/07/24 03:45:08;;;;;;;2.47;2.27;;;20.00;99.90;;;;;;5038294;28;20206;-73
2023/07/24 03:47:33;;;;;;;3.30;2.13;;;19.90;99.90;;;;;;5033087;28;20210;-73
2023/07/24 03:49:59;;;;;;;2.60;2.20;;;20.00;99.90;;;;;;5036334;28;20204;-69
2023/07/24 03:52:24;;;;;;;2.33;2.13;;;20.00;99.90;;;;;;5033360;28;20640;-68
2023/07/24 03:54:51;;;;;;;3.33;2.30;;;20.10;99.90;;;;;;5038009;28;20286;-74
2023/07/24 03:57:17;;;;;;;2.47;2.27;;;20.10;99.90;;;;;;5037139;28;20209;-73
2023/07/24 03:59:42;;;;;;;2.30;1.83;;;20.10;99.90;;;;;;5037294;28;20586;-72
2023/07/24 04:02:08;;;;;;;2.47;1.80;;;20.00;99.90;;;;;;5034491;28;20307;-73
2023/07/24 04:04:33;;;;;;;3.40;2.13;;;20.00;99.90;;;;;;5038341;28;20686;-76
2023/07/24 04:06:59;;;;;;;3.83;1.87;;;20.00;99.90;;;;;;5038274;28;20204;-76
2023/07/24 04:09:25;;;;;;;3.27;1.70;;;20.00;99.90;;;;;;5039520;28;20572;-74
2023/07/24 04:11:50;;;;;;;2.23;2.03;;;20.00;99.90;;;;;;5037870;28;20211;-75
2023/07/24 04:14:16;;;;;;;1.90;1.80;;;19.90;99.90;;;;;;5030288;28;20221;-75
2023/07/24 04:16:41;;;;;;;2.60;1.80;;;20.00;99.90;;;;;;5039380;28;20201;-77
2023/07/24 04:19:07;;;;;;;1.80;1.70;;;20.00;99.90;;;;;;5039741;28;20675;-77
2023/07/24 04:21:32;;;;;;;1.90;1.70;;;20.00;99.90;;;;;;5036987;28;20748;-76
2023/07/24 04:23:57;;;;;;;7.03;3.57;;;20.00;99.90;;;;;;4986920;28;20601;-77
2023/07/24 04:26:23;;;;;;;1.60;1.50;;;20.00;99.90;;;;;;5032048;28;20207;-77
2023/07/24 04:28:49;;;;;;;1.60;1.40;;;20.00;99.90;;;;;;5032985;28;20202;-78
2023/07/24 04:31:14;;;;;;;5.27;1.87;;;20.10;99.90;;;;;;5039834;28;20293;-78
2023/07/24 04:33:39;;;;;;;1.63;1.53;;;20.10;99.90;;;;;;5033908;28;20204;-78
2023/07/24 04:36:05;;;;;;;1.60;1.50;;;20.10;99.90;;;;;;5035736;28;20199;-77
2023/07/24 04:38:30;;;;;;;1.70;1.60;;;20.10;99.90;;;;;;5032960;28;20602;-78
2023/07/24 04:40:56;;;;;;;1.60;1.50;;;20.10;99.90;;;;;;5032918;28;20244;-77
2023/07/24 04:43:22;;;;;;;1.73;1.63;;;20.10;99.90;;;;;;5020867;28;20204;-77
2023/07/24 04:45:47;;;;;;;2.23;1.63;;;20.20;99.90;;;;;;5037749;28;20224;-78
2023/07/24 04:48:13;;;;;;;2.50;1.80;;;20.20;99.90;;;;;;5029127;28;20209;-78
2023/07/24 04:50:38;;;;;;;1.53;1.43;;;20.20;99.90;;;;;;5032567;28;20231;-78
2023/07/24 04:53:04;;;;;;;1.77;1.60;;;20.20;99.90;;;;;;5032619;28;20294;-78
2023/07/24 04:55:29;;;;;;;1.30;1.30;;;20.20;99.90;;;;;;5029575;28;20233;-77
2023/07/24 04:57:55;;;;;;;1.33;1.23;;;20.20;99.90;;;;;;5037192;28;20209;-77
2023/07/24 05:00:20;;;;;;;2.70;1.80;;;20.20;99.90;;;;;;5033007;28;20815;-77
2023/07/24 05:02:46;;;;;;;1.43;1.33;;;20.30;99.90;;;;;;5035947;28;20206;-78
2023/07/24 05:05:11;;;;;;;1.83;1.50;;;20.30;99.90;;;;;;5036134;28;20202;-77
2023/07/24 05:07:37;;;;;;;1.30;1.20;;;20.40;99.90;;;;;;5036869;28;20202;-77
2023/07/24 05:10:02;;;;;;;1.53;1.43;;;20.50;99.90;;;;;;5031423;28;20677;-75
2023/07/24 05:12:28;;;;;;;2.67;1.43;;;20.50;99.90;;;;;;5036898;28;20538;-75
2023/07/24 05:14:53;;;;;;;2.37;1.23;;;20.50;99.90;;;;;;5036995;28;20353;-75
2023/07/24 05:17:19;;;;;;;1.70;1.60;;;20.60;99.90;;;;;;5036621;28;20272;-74
2023/07/24 05:19:44;;;;;;;1.27;1.17;;;20.70;99.90;;;;;;5034756;28;20201;-70
2023/07/24 05:22:10;;;;;;;2.03;1.70;;;20.70;99.90;;;;;;4976134;28;20834;-79
2023/07/24 05:24:36;;;;;;;1.57;1.43;;;20.70;99.90;;;;;;5034407;28;20205;-78
2023/07/24 05:27:03;;;;;;;1.30;1.30;;;20.90;99.90;;;;;;5034183;28;20207;-76
2023/07/24 05:29:29;;;;;;;2.33;1.17;;;20.90;99.90;;;;;;5032262;28;20218;-76
2023/07/24 05:31:54;;;;;;;1.27;1.27;;;20.90;99.90;;;;;;5043560;28;20229;-76
2023/07/24 05:34:20;;;;;;;2.60;1.77;;;20.90;99.90;;;;;;5034162;28;20202;-76
2023/07/24 05:36:46;;;;;;;1.63;1.53;;;21.00;99.90;;;;;;5039858;28;20339;-77
2023/07/24 05:39:11;;;;;;;1.70;1.60;;;21.00;99.90;;;;;;5036882;28;20202;-76
2023/07/24 05:41:37;;;;;;;1.30;1.17;;;21.10;99.90;;;;;;5043610;28;20651;-75
2023/07/24 05:44:02;;;;;;;2.20;1.63;;;21.00;99.90;;;;;;5036745;28;20208;-75
2023/07/24 05:46:28;;;;;;;1.53;1.43;;;21.00;99.90;;;;;;5043319;28;20580;-72
2023/07/24 05:48:53;;;;;;;1.60;1.50;;;21.10;99.90;;;;;;5044434;28;20341;-77
2023/07/24 05:51:19;;;;;;;1.70;1.60;;;21.20;99.90;;;;;;5043849;28;20267;-76
2023/07/24 05:53:44;;;;;;;1.50;1.40;;;21.10;99.90;;;;;;5043921;28;20205;-76
2023/07/24 05:56:10;;;;;;;1.60;1.50;;;21.20;99.90;;;;;;5041419;28;20190;-74
2023/07/24 05:58:35;;;;;;;1.60;1.33;;;21.20;99.90;;;;;;5043441;28;20265;-78
2023/07/24 06:01:01;;;;;;;1.50;1.40;;;21.20;99.90;;;;;;5043780;28;20744;-74
2023/07/24 06:03:26;;;;;;;0.87;0.87;;;21.10;99.90;;;;;;5020367;28;20209;-74
2023/07/24 06:05:55;;;;;;;1.57;1.47;;;21.20;99.90;;;;;;5043165;28;20747;-77
2023/07/24 06:08:22;;;;;;;2.27;1.50;;;21.20;99.90;;;;;;5041597;28;20206;-73
2023/07/24 06:10:49;;;;;;;3.37;2.10;;;21.30;99.90;;;;;;5043140;28;20469;-72
2023/07/24 06:13:18;;;;;;;1.77;1.57;;;21.30;99.90;;;;;;5042939;28;20760;-73
2023/07/24 06:15:44;;;;;;;1.67;1.57;;;21.30;99.90;;;;;;5041615;28;20220;-80
2023/07/24 06:18:10;;;;;;;1.50;1.40;;;21.30;99.90;;;;;;5033580;28;20209;-73
2023/07/24 06:20:36;;;;;;;1.70;1.60;;;21.40;99.90;;;;;;5042523;28;20216;-71
2023/07/24 06:23:03;;;;;;;2.40;1.90;;;21.40;99.90;;;;;;4992543;28;20194;-72
2023/07/24 06:25:30;;;;;;;2.40;2.20;;;21.50;99.90;;;;;;5037192;28;20511;-72
2023/07/24 06:27:55;;;;;;;2.60;1.23;;;21.50;99.90;;;;;;5042861;28;20206;-75
2023/07/24 06:30:21;;;;;;;2.17;1.97;;;21.60;99.90;;;;;;5043433;28;20210;-75
2023/07/24 06:32:46;;;;;;;1.80;1.70;;;21.60;99.90;;;;;;5043818;28;20208;-75
2023/07/24 06:35:12;;;;;;;2.00;1.87;;;21.60;99.90;;;;;;5038483;28;20699;-75
2023/07/24 06:37:37;;;;;;;2.43;2.10;;;21.70;99.90;;;;;;5042268;28;20764;-75
2023/07/24 06:40:04;;;;;;;3.40;2.27;;;21.60;99.90;;;;;;5043411;28;20199;-75
2023/07/24 06:42:29;;;;;;;2.37;2.17;;;21.70;99.90;;;;;;5037063;28;20206;-77
2023/07/24 06:44:55;;;;;;;2.07;1.93;;;21.80;99.90;;;;;;5035079;28;20239;-74
2023/07/24 06:47:20;;;;;;;1.97;1.83;;;21.90;99.90;;;;;;5039330;28;20206;-76
2023/07/24 06:49:46;;;;;;;2.20;2.00;;;21.80;99.90;;;;;;5039328;28;20392;-76
2023/07/24 06:52:12;;;;;;;2.60;2.17;;;21.90;99.90;;;;;;5039185;28;20344;-76
2023/07/24 06:54:37;;;;;;;3.43;2.00;;;21.90;99.90;;;;;;5018936;28;20934;-76
2023/07/24 06:57:03;;;;;;;2.37;2.10;;;21.90;99.90;;;;;;5036238;28;20248;-76
2023/07/24 06:59:28;;;;;;;3.83;1.90;;;21.90;99.90;;;;;;5044475;28;20303;-74
2023/07/24 07:01:54;;;;;;;2.80;2.07;;;22.00;99.90;;;;;;5043348;28;20194;-74
2023/07/24 07:04:19;;;;;;;1.90;1.80;;;22.00;99.90;;;;;;5045373;28;20601;-74
2023/07/24 07:06:45;;;;;;;1.80;1.70;;;22.10;99.90;;;;;;5046638;28;20403;-74
2023/07/24 07:09:11;;;;;;;2.40;2.20;;;22.30;99.90;;;;;;5044556;28;20203;-74
2023/07/24 07:11:36;;;;;;;2.47;2.30;;;22.30;99.90;;;;;;5029247;28;20653;-73
2023/07/24 07:14:02;;;;;;;1.73;1.63;;;22.30;99.90;;;;;;5044221;28;20191;-74
2023/07/24 07:16:27;;;;;;;2.60;1.93;;;22.50;99.90;;;;;;5045540;28;20195;-74
2023/07/24 07:18:53;;;;;;;2.57;2.37;;;22.40;99.90;;;;;;5043713;28;20206;-73
2023/07/24 07:21:18;;;;;;;2.33;2.13;;;22.40;99.90;;;;;;5045921;28;20677;-73
2023/07/24 07:23:44;;;;;;;2.07;1.97;;;22.50;99.90;;;;;;4994482;28;20195;-73
2023/07/24 07:26:09;;;;;;;2.67;1.83;;;22.70;99.90;;;;;;5046686;28;20222;-73
2023/07/24 07:28:35;;;;;;;2.70;2.40;;;22.60;99.90;;;;;;5036641;28;20203;-72
2023/07/24 07:31:00;;;;;;;2.23;2.03;;;22.60;99.90;;;;;;5041954;28;20194;-74
2023/07/24 07:33:26;;;;;;;2.37;2.27;;;22.70;99.90;;;;;;5036845;28;20222;-74
2023/07/24 07:35:51;;;;;;;2.20;2.00;;;22.80;99.90;;;;;;5040305;28;20215;-74
2023/07/24 07:38:17;;;;;;;2.17;2.00;;;22.80;99.90;;;;;;5043690;28;20728;-73
2023/07/24 07:40:42;;;;;;;3.23;2.60;;;22.70;99.90;;;;;;5045986;28;20199;-73
2023/07/24 07:43:08;;;;;;;1.90;1.80;;;22.80;99.90;;;;;;5044331;28;20625;-73
2023/07/24 07:45:33;;;;;;;2.03;1.93;;;23.00;99.90;;;;;;5040416;28;20183;-73
2023/07/24 07:47:59;;;;;;;2.00;1.90;;;23.00;99.90;;;;;;5041593;28;20223;-73
2023/07/24 07:50:25;;;;;;;2.17;2.07;;;23.10;99.90;;;;;;5043191;28;20587;-73
2023/07/24 07:52:51;;;;;;;1.90;1.80;;;23.10;99.90;;;;;;5044150;28;20226;-73
2023/07/24 07:55:18;;;;;;;1.90;1.80;;;23.20;99.90;;;;;;5046351;28;20203;-74
2023/07/24 07:57:44;;;;;;;2.07;1.87;;;23.30;99.90;;;;;;5043742;28;20199;-73
2023/07/24 08:00:09;;;;;;;2.00;1.90;;;23.40;99.90;;;;;;5045257;28;20569;-74
2023/07/24 08:02:39;;;;;;;1.60;1.50;;;23.20;99.90;;;;;;5044211;28;20301;-73
2023/07/24 08:05:08;;;;;;;1.70;1.60;;;23.40;99.90;;;;;;5046104;28;20182;-74
2023/07/24 08:07:33;;;;;;;1.37;1.30;;;23.40;99.90;;;;;;5043617;28;20317;-73
2023/07/24 08:09:59;;;;;;;1.60;1.50;;;23.60;99.90;;;;;;5044571;28;20617;-79
2023/07/24 08:12:24;;;;;;;1.60;1.50;;;23.60;99.90;;;;;;5034942;28;20313;-74
2023/07/24 08:14:50;;;;;;;2.17;1.77;;;23.60;99.90;;;;;;5046148;28;20214;-74
2023/07/24 08:17:15;;;;;;;1.90;1.80;;;23.50;99.90;;;;;;5045959;28;20207;-71
2023/07/24 08:19:41;;;;;;;1.83;1.73;;;23.60;99.90;;;;;;5038499;28;20195;-83
2023/07/24 08:22:08;;;;;;;2.47;2.30;;;23.80;99.90;;;;;;5033088;28;20187;-68
2023/07/24 08:24:35;;;;;;;1.48;1.38;;;24.00;99.90;;;;;;5009363;28;20518;-75
2023/07/24 08:27:00;;;;;;;1.63;1.53;;;24.10;99.90;;;;;;5043745;28;20724;-76
2023/07/24 08:29:26;;;;;;;2.20;2.00;;;24.20;99.90;;;;;;5040576;28;20301;-76
2023/07/24 08:31:51;;;;;;;2.67;2.03;;;24.30;99.90;;;;;;5037027;28;20225;-76
2023/07/24 08:34:17;;;;;;;2.20;2.00;;;24.40;99.90;;;;;;5042730;28;20219;-76
2023/07/24 08:36:42;;;;;;;2.55;2.35;;;24.20;99.90;;;;;;5026618;28;20200;-71
2023/07/24 08:39:08;;;;;;;3.70;2.45;;;24.20;99.90;;;;;;5036228;28;20539;-72
2023/07/24 08:41:34;;;;;;;1.70;1.58;;;24.20;99.90;;;;;;5041626;28;20222;-70
2023/07/24 08:47:23;;;;;;;2.10;2.00;;;24.20;99.90;;;;;;5035056;28;20306;-74
2023/07/24 08:49:49;;;;;;;2.30;2.13;;;24.30;99.90;;;;;;5028087;28;20195;-73
2023/07/24 08:52:15;;;;;;;2.63;2.43;;;24.40;99.90;;;;;;5033627;28;20247;-76
2023/07/24 08:54:41;;;;;;;2.30;2.10;;;24.40;99.90;;;;;;5036273;28;20310;-71
2023/07/24 08:57:07;;;;;;;2.20;2.10;;;24.40;99.90;;;;;;5034607;28;20237;-69
2023/07/24 08:59:34;;;;;;;1.80;1.70;;;24.40;99.90;;;;;;5018135;28;20214;-69
2023/07/24 09:01:59;;;;;;;5.00;1.80;;;24.40;99.90;;;;;;5029384;28;20226;-68
2023/07/24 09:04:25;;;;;;;1.88;1.63;;;24.30;99.90;;;;;;5033468;28;20645;-70
2023/07/24 09:06:50;;;;;;;2.53;2.20;;;24.40;99.90;;;;;;5034465;28;20735;-70
2023/07/24 09:09:16;;;;;;;4.82;2.10;;;24.30;99.90;;;;;;5029568;28;20554;-72
2023/07/24 09:11:53;;;;;;;1.80;1.70;;;24.50;99.90;;;;;;5034715;28;20229;-72
2023/07/24 09:14:26;;;;;;;2.03;1.70;;;24.50;99.90;;;;;;5034859;28;20211;-69
2023/07/24 09:17:21;;;;;;;2.47;2.00;;;24.60;99.90;;;;;;5033618;28;20210;-70
2023/07/24 09:19:55;;;;;;;2.30;2.10;;;24.40;99.90;;;;;;5019755;28;20260;-68
2023/07/24 09:22:26;;;;;;;2.83;1.85;;;24.60;99.90;;;;;;5002471;28;20745;-68
2023/07/24 09:24:56;;;;;;;2.75;1.83;;;24.80;99.90;;;;;;5039343;28;20206;-70
2023/07/24 09:27:29;;;;;;;2.85;1.75;;;24.80;99.90;;;;;;5033091;28;20199;-71
2023/07/24 09:29:55;;;;;;;2.57;2.37;;;25.00;99.90;;;;;;5016785;28;20584;-71
2023/07/24 09:32:22;;;;;;;2.45;1.50;;;25.00;99.90;;;;;;5032718;28;20210;-71
2023/07/24 09:34:50;;;;;;;3.10;1.90;;;25.00;99.90;;;;;;5030276;28;20210;-68
2023/07/24 09:37:42;;;;;;;2.90;1.52;;;24.90;99.90;;;;;;5029974;28;20253;-67
2023/07/24 09:40:09;;;;;;;1.70;1.60;;;25.10;99.80;;;;;;5020610;28;20498;-73
2023/07/24 09:42:36;;;;;;;2.75;2.35;;;25.20;99.50;;;;;;5034754;28;20206;-76
2023/07/24 09:45:03;;;;;;;2.95;2.70;;;25.20;99.40;;;;;;5029298;28;20254;-74
2023/07/24 09:47:29;;;;;;;2.83;2.28;;;25.20;99.90;;;;;;5035131;28;20475;-75
2023/07/24 09:49:55;;;;;;;3.45;2.88;;;25.20;99.50;;;;;;5027332;28;20627;-75
2023/07/24 09:52:21;;;;;;;3.50;2.37;;;25.10;99.00;;;;;;5033838;28;20223;-75
2023/07/24 09:55:01;;;;;;;5.25;2.38;;;25.20;99.20;;;;;;5032736;28;20217;-70
2023/07/24 09:57:29;;;;;;;2.25;2.05;;;25.00;99.40;;;;;;5036151;28;20199;-71
2023/07/24 09:59:56;;;;;;;2.40;2.20;;;25.10;99.10;;;;;;5033891;28;20234;-67
2023/07/24 10:02:23;;;;;;;2.03;1.92;;;25.20;98.20;;;;;;5035940;28;20199;-66
2023/07/24 10:04:49;;;;;;;2.38;2.00;;;25.20;97.80;;;;;;5035769;28;20199;-68
2023/07/24 10:07:21;;;;;;;2.45;2.05;;;25.30;97.80;;;;;;5036113;28;20243;-70
2023/07/24 10:09:49;;;;;;;2.40;2.20;;;25.40;97.70;;;;;;5034181;28;20188;-70
2023/07/24 10:12:16;;;;;;;4.57;3.05;;;25.50;97.30;;;;;;5036202;28;20203;-69
2023/07/24 10:14:42;;;;;;;3.13;2.67;;;25.60;96.70;;;;;;5030588;28;20223;-68
2023/07/24 10:17:08;;;;;;;3.80;2.60;;;25.60;96.40;;;;;;5038230;28;20207;-67
2023/07/24 10:19:39;;;;;;;4.43;2.65;;;25.70;96.20;;;;;;5038280;28;20225;-67
2023/07/24 10:22:07;;;;;;;2.97;2.53;;;25.70;95.90;;;;;;5020185;28;20196;-73
2023/07/24 10:24:39;;;;;;;3.35;2.90;;;25.80;95.60;;;;;;5021372;28;20204;-71
2023/07/24 10:27:06;;;;;;;2.95;2.42;;;25.90;95.40;;;;;;5038551;28;20248;-75
2023/07/24 10:29:36;;;;;;;2.53;2.33;;;26.10;94.60;;;;;;5037021;28;20554;-74
2023/07/24 10:32:02;;;;;;;2.70;2.20;;;26.10;94.90;;;;;;5034017;28;20575;-73
2023/07/24 10:34:40;;;;;;;3.47;3.17;;;26.30;94.10;;;;;;5039746;28;20224;-80
2023/07/24 10:37:09;;;;;;;2.90;2.38;;;26.30;93.90;;;;;;5028467;28;20209;-80
2023/07/24 10:39:41;;;;;;;4.10;3.72;;;26.50;94.30;;;;;;5034793;28;20212;-76
2023/07/24 10:42:10;;;;;;;3.47;3.17;;;26.60;93.60;;;;;;5041337;28;20956;-72
2023/07/24 10:44:37;;;;;;;3.88;3.08;;;26.70;93.50;;;;;;5039231;28;20228;-73
2023/07/24 10:47:03;;;;;;;3.65;3.20;;;26.70;92.60;;;;;;5038504;28;20220;-73
2023/07/24 10:49:28;;;;;;;3.65;3.30;;;26.70;93.10;;;;;;5039058;28;20437;-73
2023/07/24 10:51:57;;;;;;;3.35;2.92;;;26.70;92.70;;;;;;5039458;28;20277;-80
2023/07/24 10:54:23;;;;;;;4.55;3.53;;;26.90;92.60;;;;;;5039313;28;20214;-80
2023/07/24 10:56:48;;;;;;;3.90;3.20;;;26.80;92.00;;;;;;5039252;28;20203;-80
2023/07/24 10:59:14;;;;;;;3.20;2.90;;;26.90;90.70;;;;;;5035392;28;20680;-79
2023/07/24 11:01:40;;;;;;;3.90;3.30;;;27.00;90.30;;;;;;5039514;28;20252;-70
2023/07/24 11:04:06;;;;;;;3.42;3.13;;;26.90;90.60;;;;;;5033036;28;20205;-73
2023/07/24 11:06:32;;;;;;;3.90;3.42;;;27.10;90.20;;;;;;5033200;28;20280;-71
2023/07/24 11:09:00;;;;;;;4.22;3.83;;;27.30;87.90;;;;;;5035179;28;20279;-78
2023/07/24 11:11:29;;;;;;;3.40;3.10;;;27.30;87.20;;;;;;5035696;28;20213;-72
2023/07/24 11:13:55;;;;;;;7.38;4.00;;;27.50;87.20;;;;;;5036766;28;20321;-75
2023/07/24 11:16:20;;;;;;;4.03;3.65;;;27.30;87.50;;;;;;5035966;28;20215;-74
2023/07/24 11:18:47;;;;;;;4.57;4.10;;;27.20;87.00;;;;;;5038578;28;20288;-75
2023/07/24 11:21:14;;;;;;;4.15;3.72;;;27.00;86.90;;;;;;5032835;28;20205;-78
2023/07/24 11:23:50;;;;;;;6.90;3.53;;;26.90;86.60;;;;;;5001078;28;20193;-74
2023/07/24 11:26:19;;;;;;;4.35;3.67;;;26.80;87.60;;;;;;5031858;28;20201;-72
2023/07/24 11:28:45;;;;;;;4.15;3.60;;;26.80;86.90;;;;;;5032321;28;20202;-72
2023/07/24 11:31:11;;;;;;;4.32;3.75;;;26.70;87.60;;;;;;5033582;28;20667;-72
2023/07/24 11:33:37;;;;;;;4.88;4.20;;;26.80;87.50;;;;;;5038272;28;20279;-73
2023/07/24 11:36:07;;;;;;;5.72;3.78;;;27.10;86.40;;;;;;5038692;28;20551;-72
2023/07/24 11:38:32;;;;;;;5.18;4.05;;;27.30;85.80;;;;;;5035581;28;20202;-75
2023/07/24 11:40:58;;;;;;;3.85;3.45;;;27.20;85.50;;;;;;5035943;28;20213;-75
2023/07/24 11:43:24;;;;;;;4.20;3.80;;;27.30;84.90;;;;;;5038066;28;20468;-74
2023/07/24 11:45:52;;;;;;;5.55;3.67;;;27.20;85.00;;;;;;5035272;28;20209;-74
2023/07/24 11:48:23;;;;;;;5.35;3.67;;;27.20;85.30;;;;;;5033033;28;20209;-74
2023/07/24 11:50:54;;;;;;;7.00;3.95;;;27.40;84.90;;;;;;5036869;28;20216;-78
2023/07/24 11:53:21;;;;;;;6.03;4.63;;;27.60;83.70;;;;;;5034774;28;20210;-73
2023/07/24 11:55:48;;;;;;;4.78;4.38;;;27.70;84.50;;;;;;5037616;28;20226;-74
2023/07/24 11:58:16;;;;;;;5.82;4.60;;;27.80;83.10;;;;;;5036844;28;20199;-73
2023/07/24 12:00:42;;;;;;;4.13;3.50;;;27.70;83.60;;;;;;5034919;28;20201;-74
2023/07/24 12:03:08;;;;;;;4.57;3.83;;;27.50;84.00;;;;;;5030880;28;20195;-70
2023/07/24 12:05:41;;;;;;;5.55;4.22;;;27.20;83.90;;;;;;5038080;28;20208;-81
2023/07/24 12:08:07;;;;;;;4.93;4.07;;;27.00;84.40;;;;;;5033158;28;20204;-79
2023/07/24 12:10:36;;;;;;;4.60;4.05;;;26.80;84.80;;;;;;5035072;28;20206;-77
2023/07/24 12:13:02;;;;;;;4.90;3.92;;;26.60;86.10;;;;;;5034672;28;20204;-74
2023/07/24 12:15:28;;;;;;;5.10;4.20;;;26.00;90.90;;;;;;5033298;28;20230;-77
2023/07/24 12:17:53;;;;;;;5.32;3.97;;;25.40;94.00;;;;;;5037585;28;20225;-76
2023/07/24 12:20:19;;;;;;;6.60;4.05;;;24.10;99.90;;;;;;5036800;28;20198;-77
2023/07/24 12:22:45;;;;;;;8.50;4.97;;;23.00;99.90;;;;;;4973776;28;20728;-72
2023/07/24 12:25:10;;;;;;;8.27;4.20;;;22.60;99.90;;;;;;5037230;28;20256;-75
2023/07/24 12:27:37;;;;;;;6.60;4.40;;;22.40;99.90;;;;;;5037618;28;20619;-77
2023/07/24 12:30:03;;;;;;;8.47;4.13;;;22.30;99.90;;;;;;5033732;28;20203;-77
2023/07/24 12:32:28;;;;;;;7.80;4.83;;;22.30;99.90;;;;;;5031827;28;20570;-68
2023/07/24 12:34:54;;;;;;;5.63;4.33;;;22.50;99.90;;;;;;5037255;28;20240;-72
2023/07/24 12:37:20;;;;;;;5.20;3.93;;;22.70;99.90;;;;;;5035443;28;20255;-71
2023/07/24 12:39:46;;;;;;;10.30;3.57;;;22.90;99.90;;;;;;5036157;28;20748;-71
2023/07/24 12:42:15;;;;;;;6.60;3.87;;;23.20;99.90;;;;;;5026227;28;20204;-72
2023/07/24 12:44:41;;;;;;;5.90;3.73;;;23.60;99.90;;;;;;5028352;28;20207;-71
2023/07/24 12:47:07;;;;;;;5.57;3.70;;;24.00;99.90;;;;;;5035741;28;20195;-77